createdAt,value
2022-08-21T04:00:30.412Z,1004.76
2022-08-21T04:01:30.408Z,1004.72
2022-08-21T04:02:30.338Z,1004.73
2022-08-21T04:03:30.326Z,1004.73
2022-08-21T04:04:30.313Z,1004.77
2022-08-21T04:05:30.304Z,1004.77
2022-08-21T04:06:34.554Z,1004.80
2022-08-21T04:07:31.280Z,1004.77
2022-08-21T04:08:30.267Z,1004.74
2022-08-21T04:09:30.260Z,1004.76
2022-08-21T04:10:30.247Z,1004.79
2022-08-21T04:11:35.267Z,1004.76
2022-08-21T04:12:30.225Z,1004.78
2022-08-21T04:13:30.214Z,1004.78
2022-08-21T04:14:30.201Z,1004.83
2022-08-21T04:15:30.194Z,1004.88
2022-08-21T04:16:30.185Z,1004.83
2022-08-21T04:17:30.196Z,1004.89
2022-08-21T04:18:30.157Z,1004.86
2022-08-21T04:19:30.146Z,1004.86
2022-08-21T04:20:30.134Z,1004.92
2022-08-21T04:21:30.125Z,1004.92
2022-08-21T04:22:35.184Z,1004.93
2022-08-21T04:23:30.102Z,1004.97
2022-08-21T04:24:30.101Z,1004.93
2022-08-21T04:25:30.082Z,1004.99
2022-08-21T04:26:30.074Z,1005.03
2022-08-21T04:27:30.068Z,1004.94
2022-08-21T04:28:30.441Z,1005.05
2022-08-21T04:29:30.035Z,1005.02
2022-08-21T04:30:30.025Z,1004.97
2022-08-21T04:31:30.012Z,1005.02
2022-08-21T04:32:30.017Z,1005.02
2022-08-21T04:33:35.013Z,1005.05
2022-08-21T04:34:29.977Z,1005.00
2022-08-21T04:35:29.969Z,1005.06
2022-08-21T04:36:29.958Z,1005.07
2022-08-21T04:37:29.958Z,1005.08
2022-08-21T04:38:36.525Z,1005.04
2022-08-21T04:39:30.923Z,1005.00
2022-08-21T04:40:30.008Z,1005.08
2022-08-21T04:41:29.902Z,1005.09
2022-08-21T04:42:29.902Z,1005.13
2022-08-21T04:43:29.879Z,1005.12
2022-08-21T04:44:34.890Z,1005.10
2022-08-21T04:45:29.857Z,1005.15
2022-08-21T04:46:29.844Z,1005.19
2022-08-21T04:47:44.560Z,1005.14
2022-08-21T04:48:30.823Z,1005.19
2022-08-21T04:49:29.812Z,1005.23
2022-08-21T04:50:29.800Z,1005.20
2022-08-21T04:51:30.908Z,1005.20
2022-08-21T04:52:29.796Z,1005.15
2022-08-21T04:53:29.769Z,1005.15
2022-08-21T04:54:29.754Z,1005.15
2022-08-21T04:55:34.773Z,1005.20
2022-08-21T04:56:29.732Z,1005.10
2022-08-21T04:57:34.210Z,1005.17
2022-08-21T04:58:30.709Z,1005.16
2022-08-21T04:59:29.700Z,1005.21
2022-08-21T05:00:29.687Z,1005.20
2022-08-21T05:01:29.742Z,1005.16
2022-08-21T05:02:29.680Z,1005.15
2022-08-21T05:03:29.653Z,1005.22
2022-08-21T05:04:29.648Z,1005.21
2022-08-21T05:05:29.634Z,1005.18
2022-08-21T05:06:34.644Z,1005.20
2022-08-21T05:07:42.786Z,1005.14
2022-08-21T05:08:30.599Z,1005.23
2022-08-21T05:09:29.593Z,1005.18
2022-08-21T05:10:29.583Z,1005.24
2022-08-21T05:11:29.568Z,1005.24
2022-08-21T05:12:29.567Z,1005.24
2022-08-21T05:13:29.572Z,1005.22
2022-08-21T05:14:29.537Z,1005.18
2022-08-21T05:15:29.519Z,1005.20
2022-08-21T05:16:36.708Z,1005.20
2022-08-21T05:17:35.529Z,1005.23
2022-08-21T05:18:29.495Z,1005.25
2022-08-21T05:19:29.479Z,1005.21
2022-08-21T05:20:29.468Z,1005.29
2022-08-21T05:21:29.453Z,1005.25
2022-08-21T05:22:29.462Z,1005.25
2022-08-21T05:23:29.441Z,1005.23
2022-08-21T05:24:29.421Z,1005.27
2022-08-21T05:25:29.408Z,1005.31
2022-08-21T05:26:29.408Z,1005.32
2022-08-21T05:27:29.403Z,1005.32
2022-08-21T05:28:34.397Z,1005.32
2022-08-21T05:29:29.366Z,1005.41
2022-08-21T05:30:29.355Z,1005.39
2022-08-21T05:31:29.342Z,1005.38
2022-08-21T05:32:29.334Z,1005.37
2022-08-21T05:33:29.328Z,1005.43
2022-08-21T05:34:29.316Z,1005.38
2022-08-21T05:35:29.300Z,1005.40
2022-08-21T05:36:29.286Z,1005.42
2022-08-21T05:37:29.275Z,1005.40
2022-08-21T05:38:29.288Z,1005.36
2022-08-21T05:40:05.217Z,1005.47
2022-08-21T05:40:30.307Z,1005.40
2022-08-21T05:41:29.234Z,1005.39
2022-08-21T05:42:29.219Z,1005.38
2022-08-21T05:43:29.220Z,1005.42
2022-08-21T05:44:29.197Z,1005.33
2022-08-21T05:45:43.452Z,1005.40
2022-08-21T05:46:30.174Z,1005.40
2022-08-21T05:47:29.177Z,1005.30
2022-08-21T05:48:29.165Z,1005.36
2022-08-21T05:49:29.144Z,1005.38
2022-08-21T05:50:34.152Z,1005.30
2022-08-21T05:51:29.117Z,1005.36
2022-08-21T05:52:29.108Z,1005.38
2022-08-21T05:53:29.108Z,1005.37
2022-08-21T05:54:29.091Z,1005.40
2022-08-21T05:55:29.074Z,1005.40
2022-08-21T05:56:30.062Z,1005.39
2022-08-21T05:57:29.055Z,1005.38
2022-08-21T05:58:29.053Z,1005.31
2022-08-21T05:59:29.028Z,1005.33
2022-08-21T06:00:29.110Z,1005.42
2022-08-21T06:01:34.104Z,1005.35
2022-08-21T06:02:28.997Z,1005.36
2022-08-21T06:03:28.996Z,1005.33
2022-08-21T06:04:28.975Z,1005.38
2022-08-21T06:05:36.580Z,1005.40
2022-08-21T06:06:29.958Z,1005.33
2022-08-21T06:07:28.940Z,1005.32
2022-08-21T06:08:28.941Z,1005.40
2022-08-21T06:09:28.918Z,1005.41
2022-08-21T06:10:28.963Z,1005.37
2022-08-21T06:11:29.243Z,1005.38
2022-08-21T06:12:33.905Z,1005.38
2022-08-21T06:13:28.943Z,1005.37
2022-08-21T06:14:28.870Z,1005.46
2022-08-21T06:15:28.849Z,1005.43
2022-08-21T06:16:28.844Z,1005.40
2022-08-21T06:17:28.828Z,1005.44
2022-08-21T06:18:28.831Z,1005.44
2022-08-21T06:19:28.806Z,1005.45
2022-08-21T06:20:28.799Z,1005.44
2022-08-21T06:21:28.783Z,1005.35
2022-08-21T06:22:28.774Z,1005.45
2022-08-21T06:23:33.801Z,1005.41
2022-08-21T06:24:28.752Z,1005.43
2022-08-21T06:25:28.744Z,1005.38
2022-08-21T06:26:28.735Z,1005.45
2022-08-21T06:27:28.718Z,1005.45
2022-08-21T06:28:28.726Z,1005.39
2022-08-21T06:29:28.702Z,1005.46
2022-08-21T06:30:28.695Z,1005.38
2022-08-21T06:31:28.672Z,1005.42
2022-08-21T06:32:28.664Z,1005.44
2022-08-21T06:33:32.510Z,1005.48
2022-08-21T06:34:33.662Z,1005.42
2022-08-21T06:35:28.628Z,1005.47
2022-08-21T06:36:28.620Z,1005.49
2022-08-21T06:37:28.605Z,1005.46
2022-08-21T06:38:28.614Z,1005.42
2022-08-21T06:39:32.301Z,1005.44
2022-08-21T06:40:28.602Z,1005.43
2022-08-21T06:41:28.563Z,1005.43
2022-08-21T06:42:28.553Z,1005.40
2022-08-21T06:43:32.794Z,1005.43
2022-08-21T06:44:29.554Z,1005.46
2022-08-21T06:45:33.538Z,1005.38
2022-08-21T06:46:28.509Z,1005.48
2022-08-21T06:47:28.497Z,1005.36
2022-08-21T06:48:28.486Z,1005.38
2022-08-21T06:49:28.485Z,1005.44
2022-08-21T06:50:28.464Z,1005.48
2022-08-21T06:51:28.453Z,1005.45
2022-08-21T06:52:28.441Z,1005.42
2022-08-21T06:53:28.428Z,1005.43
2022-08-21T06:54:28.429Z,1005.40
2022-08-21T06:55:29.261Z,1005.50
2022-08-21T06:56:33.418Z,1005.53
2022-08-21T06:57:28.385Z,1005.53
2022-08-21T06:58:28.389Z,1005.46
2022-08-21T06:59:28.362Z,1005.44
2022-08-21T07:00:28.360Z,1005.46
2022-08-21T07:01:28.438Z,1005.51
2022-08-21T07:02:28.338Z,1005.56
2022-08-21T07:03:28.336Z,1005.51
2022-08-21T07:04:28.310Z,1005.43
2022-08-21T07:05:28.295Z,1005.48
2022-08-21T07:06:28.289Z,1005.52
2022-08-21T07:07:33.294Z,1005.43
2022-08-21T07:08:28.269Z,1005.45
2022-08-21T07:09:28.263Z,1005.43
2022-08-21T07:10:28.243Z,1005.45
2022-08-21T07:11:28.230Z,1005.44
2022-08-21T07:12:28.219Z,1005.44
2022-08-21T07:13:28.205Z,1005.43
2022-08-21T07:14:28.216Z,1005.43
2022-08-21T07:15:28.189Z,1005.43
2022-08-21T07:16:28.174Z,1005.36
2022-08-21T07:17:28.163Z,1005.37
2022-08-21T07:18:33.182Z,1005.40
2022-08-21T07:19:28.150Z,1005.37
2022-08-21T07:20:28.129Z,1005.32
2022-08-21T07:21:28.116Z,1005.36
2022-08-21T07:22:28.109Z,1005.33
2022-08-21T07:23:28.103Z,1005.37
2022-08-21T07:24:28.101Z,1005.37
2022-08-21T07:25:28.074Z,1005.37
2022-08-21T07:26:28.063Z,1005.36
2022-08-21T07:27:28.055Z,1005.31
2022-08-21T07:28:28.276Z,1005.29
2022-08-21T07:29:33.076Z,1005.33
2022-08-21T07:30:28.018Z,1005.30
2022-08-21T07:31:28.009Z,1005.28
2022-08-21T07:32:27.996Z,1005.28
2022-08-21T07:33:27.982Z,1005.28
2022-08-21T07:34:27.983Z,1005.28
2022-08-21T07:35:27.960Z,1005.29
2022-08-21T07:36:27.951Z,1005.34
2022-08-21T07:37:27.939Z,1005.31
2022-08-21T07:38:27.930Z,1005.28
2022-08-21T07:39:27.932Z,1005.29
2022-08-21T07:40:32.929Z,1005.31
2022-08-21T07:41:27.895Z,1005.30
2022-08-21T07:42:27.885Z,1005.31
2022-08-21T07:43:27.871Z,1005.34
2022-08-21T07:44:27.873Z,1005.32
2022-08-21T07:45:27.851Z,1005.29
2022-08-21T07:46:27.851Z,1005.36
2022-08-21T07:47:41.813Z,1005.24
2022-08-21T07:48:28.817Z,1005.28
2022-08-21T07:49:27.818Z,1005.31
2022-08-21T07:50:27.798Z,1005.27
2022-08-21T07:51:32.806Z,1005.26
2022-08-21T07:52:27.778Z,1005.26
2022-08-21T07:53:27.763Z,1005.24
2022-08-21T07:54:33.931Z,1005.28
2022-08-21T07:55:28.739Z,1005.22
2022-08-21T07:56:27.732Z,1005.21
2022-08-21T07:57:27.723Z,1005.24
2022-08-21T07:58:27.709Z,1005.24
2022-08-21T07:59:27.707Z,1005.29
2022-08-21T08:00:27.688Z,1005.22
2022-08-21T08:01:27.712Z,1005.26
2022-08-21T08:02:32.692Z,1005.27
2022-08-21T08:03:28.590Z,1005.27
2022-08-21T08:04:27.664Z,1005.36
2022-08-21T08:05:27.631Z,1005.31
2022-08-21T08:06:27.629Z,1005.32
2022-08-21T08:07:27.612Z,1005.29
2022-08-21T08:08:27.604Z,1005.28
2022-08-21T08:09:27.600Z,1005.29
2022-08-21T08:10:27.580Z,1005.30
2022-08-21T08:11:27.565Z,1005.34
2022-08-21T08:12:27.557Z,1005.34
2022-08-21T08:13:32.598Z,1005.34
2022-08-21T08:14:31.605Z,1005.34
2022-08-21T08:15:27.535Z,1005.30
2022-08-21T08:16:27.516Z,1005.26
2022-08-21T08:17:27.500Z,1005.30
2022-08-21T08:18:27.492Z,1005.29
2022-08-21T08:19:27.488Z,1005.28
2022-08-21T08:20:27.470Z,1005.29
2022-08-21T08:21:27.457Z,1005.24
2022-08-21T08:22:27.446Z,1005.35
2022-08-21T08:23:27.434Z,1005.27
2022-08-21T08:24:32.457Z,1005.21
2022-08-21T08:25:27.412Z,1005.23
2022-08-21T08:26:27.402Z,1005.22
2022-08-21T08:27:27.389Z,1005.21
2022-08-21T08:28:27.382Z,1005.22
2022-08-21T08:29:27.380Z,1005.18
2022-08-21T08:30:31.262Z,1005.22
2022-08-21T08:31:28.346Z,1005.19
2022-08-21T08:32:27.337Z,1005.13
2022-08-21T08:33:27.332Z,1005.12
2022-08-21T08:34:27.328Z,1005.14
2022-08-21T08:35:32.341Z,1005.10
2022-08-21T08:36:27.296Z,1005.06
2022-08-21T08:37:30.480Z,1005.10
2022-08-21T08:38:28.270Z,1005.05
2022-08-21T08:39:29.604Z,1005.08
2022-08-21T08:40:27.274Z,1005.04
2022-08-21T08:41:30.843Z,1005.02
2022-08-21T08:42:32.730Z,1004.99
2022-08-21T08:43:28.211Z,1005.01
2022-08-21T08:44:27.204Z,1005.03
2022-08-21T08:45:27.223Z,1005.01
2022-08-21T08:46:32.206Z,1004.98
2022-08-21T08:47:27.173Z,1004.95
2022-08-21T08:48:27.158Z,1004.95
2022-08-21T08:49:27.171Z,1004.92
2022-08-21T08:50:27.135Z,1004.91
2022-08-21T08:51:27.125Z,1004.91
2022-08-21T08:52:27.113Z,1004.80
2022-08-21T08:53:27.103Z,1004.91
2022-08-21T08:54:27.099Z,1004.82
2022-08-21T08:55:27.434Z,1004.84
2022-08-21T08:56:27.071Z,1004.86
2022-08-21T08:57:32.079Z,1004.81
2022-08-21T08:58:27.045Z,1004.74
2022-08-21T08:59:27.050Z,1004.79
2022-08-21T09:00:27.026Z,1004.75
2022-08-21T09:01:27.025Z,1004.75
2022-08-21T09:02:27.150Z,1004.76
2022-08-21T09:03:26.994Z,1004.76
2022-08-21T09:04:26.992Z,1004.80
2022-08-21T09:05:26.978Z,1004.69
2022-08-21T09:06:26.957Z,1004.76
2022-08-21T09:07:26.946Z,1004.77
2022-08-21T09:08:31.958Z,1004.70
2022-08-21T09:09:26.931Z,1004.66
2022-08-21T09:10:26.912Z,1004.73
2022-08-21T09:11:26.905Z,1004.65
2022-08-21T09:12:26.894Z,1004.69
2022-08-21T09:13:26.880Z,1004.66
2022-08-21T09:14:27.303Z,1004.66
2022-08-21T09:15:26.857Z,1004.64
2022-08-21T09:16:26.849Z,1004.64
2022-08-21T09:17:26.847Z,1004.62
2022-08-21T09:18:26.824Z,1004.70
2022-08-21T09:19:31.847Z,1004.64
2022-08-21T09:20:26.801Z,1004.64
2022-08-21T09:21:26.796Z,1004.61
2022-08-21T09:22:26.779Z,1004.58
2022-08-21T09:23:26.780Z,1004.60
2022-08-21T09:24:26.768Z,1004.55
2022-08-21T09:25:26.753Z,1004.53
2022-08-21T09:26:26.736Z,1004.56
2022-08-21T09:27:26.726Z,1004.53
2022-08-21T09:28:26.713Z,1004.58
2022-08-21T09:29:26.761Z,1004.59
2022-08-21T09:30:31.729Z,1004.51
2022-08-21T09:31:26.682Z,1004.69
2022-08-21T09:32:37.518Z,1004.63
2022-08-21T09:33:27.663Z,1004.53
2022-08-21T09:34:26.647Z,1004.50
2022-08-21T09:35:26.648Z,1004.54
2022-08-21T09:36:26.626Z,1004.58
2022-08-21T09:37:26.643Z,1004.51
2022-08-21T09:38:26.602Z,1004.56
2022-08-21T09:39:26.603Z,1004.51
2022-08-21T09:40:26.658Z,1004.46
2022-08-21T09:41:31.598Z,1004.44
2022-08-21T09:42:26.560Z,1004.54
2022-08-21T09:43:26.554Z,1004.51
2022-08-21T09:44:26.570Z,1004.56
2022-08-21T09:45:26.527Z,1004.53
2022-08-21T09:46:26.515Z,1004.50
2022-08-21T09:47:26.967Z,1004.55
2022-08-21T09:48:27.176Z,1004.55
2022-08-21T09:49:27.514Z,1004.56
2022-08-21T09:50:26.474Z,1004.51
2022-08-21T09:51:26.462Z,1004.50
2022-08-21T09:52:31.474Z,1004.54
2022-08-21T09:53:26.439Z,1004.63
2022-08-21T09:54:26.428Z,1004.61
2022-08-21T09:55:26.428Z,1004.60
2022-08-21T09:56:26.404Z,1004.59
2022-08-21T09:57:26.396Z,1004.66
2022-08-21T09:58:26.384Z,1004.65
2022-08-21T09:59:26.373Z,1004.63
2022-08-21T10:00:26.373Z,1004.58
2022-08-21T10:01:26.446Z,1004.63
2022-08-21T10:02:26.341Z,1004.60
2022-08-21T10:03:31.352Z,1004.65
2022-08-21T10:04:26.325Z,1004.63
2022-08-21T10:05:26.318Z,1004.63
2022-08-21T10:06:26.295Z,1004.58
2022-08-21T10:07:26.288Z,1004.57
2022-08-21T10:08:26.273Z,1004.53
2022-08-21T10:09:26.277Z,1004.58
2022-08-21T10:10:26.263Z,1004.54
2022-08-21T10:11:26.281Z,1004.50
2022-08-21T10:12:26.234Z,1004.51
2022-08-21T10:13:26.233Z,1004.51
2022-08-21T10:14:31.241Z,1004.50
2022-08-21T10:15:26.216Z,1004.49
2022-08-21T10:16:26.190Z,1004.52
2022-08-21T10:17:26.179Z,1004.47
2022-08-21T10:18:26.165Z,1004.44
2022-08-21T10:19:26.156Z,1004.48
2022-08-21T10:20:26.159Z,1004.52
2022-08-21T10:21:26.139Z,1004.44
2022-08-21T10:22:26.123Z,1004.48
2022-08-21T10:23:26.132Z,1004.46
2022-08-21T10:24:30.947Z,1004.46
2022-08-21T10:25:32.142Z,1004.41
2022-08-21T10:26:26.083Z,1004.40
2022-08-21T10:27:26.079Z,1004.40
2022-08-21T10:28:26.068Z,1004.38
2022-08-21T10:29:26.052Z,1004.40
2022-08-21T10:30:26.046Z,1004.37
2022-08-21T10:31:26.028Z,1004.39
2022-08-21T10:32:26.786Z,1004.35
2022-08-21T10:33:26.009Z,1004.35
2022-08-21T10:34:25.993Z,1004.35
2022-08-21T10:35:25.995Z,1004.33
2022-08-21T10:36:30.993Z,1004.30
2022-08-21T10:37:25.964Z,1004.34
2022-08-21T10:38:48.839Z,1004.34
2022-08-21T10:39:35.890Z,1004.32
2022-08-21T10:40:27.018Z,1004.31
2022-08-21T10:41:25.919Z,1004.28
2022-08-21T10:42:28.268Z,1004.25
2022-08-21T10:43:25.900Z,1004.26
2022-08-21T10:44:25.885Z,1004.27
2022-08-21T10:45:25.889Z,1004.25
2022-08-21T10:46:25.864Z,1004.25
2022-08-21T10:47:30.887Z,1004.23
2022-08-21T10:48:25.848Z,1004.21
2022-08-21T10:49:25.836Z,1004.31
2022-08-21T10:50:25.821Z,1004.16
2022-08-21T10:51:29.058Z,1004.16
2022-08-21T10:52:25.804Z,1004.13
2022-08-21T10:53:25.788Z,1004.23
2022-08-21T10:54:25.778Z,1004.28
2022-08-21T10:55:25.765Z,1004.14
2022-08-21T10:56:25.763Z,1004.18
2022-08-21T10:57:31.912Z,1004.11
2022-08-21T10:58:31.751Z,1004.11
2022-08-21T10:59:25.722Z,1004.08
2022-08-21T11:00:25.871Z,1004.13
2022-08-21T11:01:25.709Z,1004.08
2022-08-21T11:02:25.688Z,1004.09
2022-08-21T11:03:25.676Z,1004.06
2022-08-21T11:04:25.670Z,1004.05
2022-08-21T11:05:25.655Z,1004.10
2022-08-21T11:06:25.670Z,1004.07
2022-08-21T11:07:25.635Z,1004.04
2022-08-21T11:08:25.619Z,1004.03
2022-08-21T11:09:30.633Z,1004.03
2022-08-21T11:10:25.724Z,1004.05
2022-08-21T11:11:25.599Z,1004.00
2022-08-21T11:12:26.574Z,1004.02
2022-08-21T11:13:30.617Z,1004.03
2022-08-21T11:14:26.578Z,1004.03
2022-08-21T11:15:29.557Z,1003.95
2022-08-21T11:16:25.542Z,1003.99
2022-08-21T11:17:25.523Z,1004.02
2022-08-21T11:18:25.510Z,1003.94
2022-08-21T11:19:25.505Z,1004.03
2022-08-21T11:20:30.525Z,1004.01
2022-08-21T11:21:25.490Z,1003.98
2022-08-21T11:22:25.464Z,1003.95
2022-08-21T11:23:25.458Z,1003.90
2022-08-21T11:24:25.475Z,1003.94
2022-08-21T11:25:25.434Z,1003.94
2022-08-21T11:26:26.429Z,1003.94
2022-08-21T11:27:25.411Z,1003.86
2022-08-21T11:28:25.402Z,1003.87
2022-08-21T11:29:25.396Z,1003.80
2022-08-21T11:30:25.391Z,1003.88
2022-08-21T11:31:30.399Z,1003.82
2022-08-21T11:32:25.357Z,1003.82
2022-08-21T11:33:25.353Z,1003.90
2022-08-21T11:34:25.336Z,1003.89
2022-08-21T11:35:25.338Z,1003.87
2022-08-21T11:36:25.328Z,1003.91
2022-08-21T11:37:25.300Z,1003.83
2022-08-21T11:38:25.291Z,1003.84
2022-08-21T11:39:25.279Z,1003.82
2022-08-21T11:40:25.337Z,1003.75
2022-08-21T11:41:25.284Z,1003.77
2022-08-21T11:42:30.266Z,1003.76
2022-08-21T11:43:25.253Z,1003.72
2022-08-21T11:44:25.227Z,1003.74
2022-08-21T11:45:26.181Z,1003.74
2022-08-21T11:46:25.210Z,1003.72
2022-08-21T11:47:25.190Z,1003.75
2022-08-21T11:48:25.179Z,1003.74
2022-08-21T11:49:25.168Z,1003.71
2022-08-21T11:50:34.225Z,1003.72
2022-08-21T11:51:26.158Z,1003.77
2022-08-21T11:52:25.132Z,1003.74
2022-08-21T11:53:30.149Z,1003.71
2022-08-21T11:54:25.111Z,1003.69
2022-08-21T11:55:25.108Z,1003.66
2022-08-21T11:56:25.099Z,1003.69
2022-08-21T11:57:25.086Z,1003.69
2022-08-21T11:58:25.066Z,1003.60
2022-08-21T11:59:25.058Z,1003.62
2022-08-21T12:00:25.051Z,1003.65
2022-08-21T12:01:25.049Z,1003.71
2022-08-21T12:02:25.077Z,1003.69
2022-08-21T12:03:25.012Z,1003.77
2022-08-21T12:04:30.041Z,1003.79
2022-08-21T12:05:24.992Z,1003.87
2022-08-21T12:06:24.979Z,1003.87
2022-08-21T12:07:24.980Z,1003.83
2022-08-21T12:08:24.964Z,1003.81
2022-08-21T12:09:24.970Z,1003.79
2022-08-21T12:10:24.936Z,1003.78
2022-08-21T12:11:24.931Z,1003.83
2022-08-21T12:12:25.934Z,1003.77
2022-08-21T12:13:39.992Z,1003.79
2022-08-21T12:14:25.932Z,1003.76
2022-08-21T12:15:29.946Z,1003.83
2022-08-21T12:16:24.894Z,1003.76
2022-08-21T12:17:24.897Z,1003.76
2022-08-21T12:18:24.852Z,1003.79
2022-08-21T12:19:24.847Z,1003.84
2022-08-21T12:20:24.829Z,1003.74
2022-08-21T12:21:24.833Z,1003.85
2022-08-21T12:22:24.811Z,1003.89
2022-08-21T12:23:24.801Z,1003.82
2022-08-21T12:24:24.789Z,1003.80
2022-08-21T12:25:24.790Z,1003.77
2022-08-21T12:26:24.781Z,1003.81
2022-08-21T12:27:24.766Z,1003.75
2022-08-21T12:28:29.771Z,1003.76
2022-08-21T12:29:24.740Z,1003.74
2022-08-21T12:30:25.798Z,1003.79
2022-08-21T12:31:24.722Z,1003.77
2022-08-21T12:32:24.717Z,1003.73
2022-08-21T12:33:24.701Z,1003.77
2022-08-21T12:34:24.686Z,1003.71
2022-08-21T12:35:25.495Z,1003.65
2022-08-21T12:36:24.667Z,1003.64
2022-08-21T12:37:24.673Z,1003.63
2022-08-21T12:38:24.646Z,1003.61
2022-08-21T12:39:29.659Z,1003.69
2022-08-21T12:40:24.722Z,1003.64
2022-08-21T12:41:24.621Z,1003.65
2022-08-21T12:42:24.618Z,1003.65
2022-08-21T12:43:24.597Z,1003.47
2022-08-21T12:44:24.586Z,1003.39
2022-08-21T12:45:24.578Z,1003.38
2022-08-21T12:46:24.568Z,1003.33
2022-08-21T12:47:24.568Z,1003.35
2022-08-21T12:48:25.007Z,1003.37
2022-08-21T12:49:26.703Z,1003.26
2022-08-21T12:50:29.557Z,1003.38
2022-08-21T12:51:24.516Z,1003.35
2022-08-21T12:52:24.517Z,1003.38
2022-08-21T12:53:24.495Z,1003.25
2022-08-21T12:54:24.486Z,1003.27
2022-08-21T12:55:24.475Z,1003.32
2022-08-21T12:56:24.467Z,1003.36
2022-08-21T12:57:24.558Z,1003.38
2022-08-21T12:58:24.442Z,1003.30
2022-08-21T12:59:24.432Z,1003.31
2022-08-21T13:00:24.420Z,1003.37
2022-08-21T13:01:29.488Z,1003.31
2022-08-21T13:02:24.435Z,1003.31
2022-08-21T13:03:24.415Z,1003.34
2022-08-21T13:04:24.378Z,1003.31
2022-08-21T13:05:24.369Z,1003.26
2022-08-21T13:06:24.356Z,1003.27
2022-08-21T13:07:24.365Z,1003.30
2022-08-21T13:08:24.344Z,1003.27
2022-08-21T13:09:24.328Z,1003.21
2022-08-21T13:10:24.319Z,1003.26
2022-08-21T13:11:32.619Z,1003.18
2022-08-21T13:12:28.336Z,1003.23
2022-08-21T13:13:28.194Z,1003.20
2022-08-21T13:14:29.303Z,1003.18
2022-08-21T13:15:24.289Z,1003.20
2022-08-21T13:16:24.308Z,1003.27
2022-08-21T13:17:25.859Z,1003.19
2022-08-21T13:18:24.240Z,1003.26
2022-08-21T13:19:24.270Z,1003.25
2022-08-21T13:20:24.212Z,1003.23
2022-08-21T13:21:24.202Z,1003.21
2022-08-21T13:22:34.584Z,1003.22
2022-08-21T13:23:25.241Z,1003.22
2022-08-21T13:24:42.816Z,1003.22
2022-08-21T13:25:25.154Z,1003.16
2022-08-21T13:26:24.154Z,1003.17
2022-08-21T13:27:29.155Z,1003.16
2022-08-21T13:28:24.153Z,1003.07
2022-08-21T13:29:24.260Z,1003.14
2022-08-21T13:30:24.100Z,1003.14
2022-08-21T13:31:24.090Z,1003.16
2022-08-21T13:32:24.079Z,1003.14
2022-08-21T13:33:24.081Z,1003.12
2022-08-21T13:34:25.098Z,1003.11
2022-08-21T13:35:24.045Z,1003.13
2022-08-21T13:36:24.036Z,1003.11
2022-08-21T13:37:24.031Z,1003.05
2022-08-21T13:38:27.264Z,1003.05
2022-08-21T13:39:24.007Z,1003.06
2022-08-21T13:40:29.020Z,1003.01
2022-08-21T13:41:23.989Z,1003.03
2022-08-21T13:42:23.990Z,1002.94
2022-08-21T13:43:23.972Z,1002.98
2022-08-21T13:44:23.958Z,1003.00
2022-08-21T13:45:23.957Z,1002.92
2022-08-21T13:46:23.929Z,1002.91
2022-08-21T13:47:23.925Z,1002.97
2022-08-21T13:48:23.921Z,1002.99
2022-08-21T13:49:23.899Z,1002.93
2022-08-21T13:50:23.890Z,1002.96
2022-08-21T13:51:28.901Z,1002.91
2022-08-21T13:52:23.869Z,1002.94
2022-08-21T13:53:23.864Z,1002.95
2022-08-21T13:54:23.841Z,1002.91
2022-08-21T13:55:23.833Z,1002.88
2022-08-21T13:56:23.830Z,1002.87
2022-08-21T13:57:23.814Z,1002.88
2022-08-21T13:58:23.807Z,1002.88
2022-08-21T13:59:23.785Z,1002.85
2022-08-21T14:00:23.776Z,1002.95
2022-08-21T14:01:23.832Z,1002.87
2022-08-21T14:02:28.791Z,1002.83
2022-08-21T14:03:23.743Z,1002.85
2022-08-21T14:04:23.739Z,1002.86
2022-08-21T14:05:23.722Z,1002.86
2022-08-21T14:06:23.714Z,1002.86
2022-08-21T14:07:23.709Z,1002.80
2022-08-21T14:08:30.072Z,1002.85
2022-08-21T14:09:24.676Z,1002.82
2022-08-21T14:10:23.676Z,1002.85
2022-08-21T14:11:23.658Z,1002.80
2022-08-21T14:12:24.016Z,1002.68
2022-08-21T14:13:28.708Z,1002.72
2022-08-21T14:14:23.624Z,1002.68
2022-08-21T14:15:23.613Z,1002.68
2022-08-21T14:16:23.604Z,1002.66
2022-08-21T14:17:25.028Z,1002.68
2022-08-21T14:18:23.595Z,1002.59
2022-08-21T14:19:23.570Z,1002.73
2022-08-21T14:20:23.561Z,1002.68
2022-08-21T14:21:23.551Z,1002.66
2022-08-21T14:22:23.538Z,1002.58
2022-08-21T14:23:23.535Z,1002.56
2022-08-21T14:24:28.548Z,1002.59
2022-08-21T14:25:23.504Z,1002.58
2022-08-21T14:26:23.513Z,1002.58
2022-08-21T14:27:23.486Z,1002.57
2022-08-21T14:28:23.491Z,1002.54
2022-08-21T14:29:23.482Z,1002.52
2022-08-21T14:30:23.457Z,1002.49
2022-08-21T14:31:23.457Z,1002.53
2022-08-21T14:32:25.056Z,1002.54
2022-08-21T14:33:23.435Z,1002.49
2022-08-21T14:34:23.410Z,1002.49
2022-08-21T14:35:28.422Z,1002.52
2022-08-21T14:36:23.415Z,1002.44
2022-08-21T14:37:23.379Z,1002.48
2022-08-21T14:38:23.377Z,1002.45
2022-08-21T14:39:23.365Z,1002.44
2022-08-21T14:40:23.445Z,1002.46
2022-08-21T14:41:23.337Z,1002.48
2022-08-21T14:42:23.322Z,1002.42
2022-08-21T14:43:23.319Z,1002.46
2022-08-21T14:44:23.302Z,1002.51
2022-08-21T14:45:24.773Z,1002.46
2022-08-21T14:46:28.304Z,1002.41
2022-08-21T14:47:23.268Z,1002.41
2022-08-21T14:48:23.271Z,1002.40
2022-08-21T14:49:23.245Z,1002.42
2022-08-21T14:50:23.236Z,1002.37
2022-08-21T14:51:23.228Z,1002.38
2022-08-21T14:52:23.216Z,1002.35
2022-08-21T14:53:23.215Z,1002.36
2022-08-21T14:54:23.287Z,1002.34
2022-08-21T14:55:24.182Z,1002.25
2022-08-21T14:56:23.172Z,1002.37
2022-08-21T14:57:28.184Z,1002.37
2022-08-21T14:58:23.158Z,1002.29
2022-08-21T14:59:23.138Z,1002.30
2022-08-21T15:00:23.126Z,1002.28
2022-08-21T15:01:23.221Z,1002.27
2022-08-21T15:02:23.108Z,1002.30
2022-08-21T15:03:23.108Z,1002.28
2022-08-21T15:04:23.084Z,1002.25
2022-08-21T15:05:26.814Z,1002.28
2022-08-21T15:06:24.066Z,1002.21
2022-08-21T15:07:23.050Z,1002.22
2022-08-21T15:08:28.077Z,1002.26
2022-08-21T15:09:23.030Z,1002.28
2022-08-21T15:10:23.019Z,1002.28
2022-08-21T15:11:41.401Z,1002.25
2022-08-21T15:12:23.999Z,1002.24
2022-08-21T15:13:23.001Z,1002.22
2022-08-21T15:14:22.978Z,1002.27
2022-08-21T15:15:22.963Z,1002.24
2022-08-21T15:16:22.954Z,1002.16
2022-08-21T15:17:22.941Z,1002.16
2022-08-21T15:18:22.934Z,1002.13
2022-08-21T15:19:27.952Z,1002.18
2022-08-21T15:20:22.911Z,1002.21
2022-08-21T15:21:22.898Z,1002.25
2022-08-21T15:22:27.696Z,1002.23
2022-08-21T15:23:23.887Z,1002.28
2022-08-21T15:24:22.867Z,1002.22
2022-08-21T15:25:22.859Z,1002.25
2022-08-21T15:26:22.846Z,1002.25
2022-08-21T15:27:22.835Z,1002.24
2022-08-21T15:28:22.823Z,1002.23
2022-08-21T15:29:23.078Z,1002.22
2022-08-21T15:30:27.825Z,1002.23
2022-08-21T15:31:22.791Z,1002.26
2022-08-21T15:32:22.781Z,1002.21
2022-08-21T15:33:22.767Z,1002.23
2022-08-21T15:34:27.121Z,1002.24
2022-08-21T15:35:23.746Z,1002.18
2022-08-21T15:36:22.749Z,1002.16
2022-08-21T15:37:22.725Z,1002.15
2022-08-21T15:38:22.717Z,1002.20
2022-08-21T15:39:24.726Z,1002.20
2022-08-21T15:40:22.748Z,1002.13
2022-08-21T15:41:27.709Z,1002.09
2022-08-21T15:42:22.674Z,1002.17
2022-08-21T15:43:22.660Z,1002.16
2022-08-21T15:44:23.688Z,1002.17
2022-08-21T15:45:22.638Z,1002.16
2022-08-21T15:46:22.628Z,1002.15
2022-08-21T15:47:22.622Z,1002.12
2022-08-21T15:48:22.607Z,1002.12
2022-08-21T15:49:22.610Z,1002.08
2022-08-21T15:50:22.583Z,1002.05
2022-08-21T15:51:22.577Z,1002.09
2022-08-21T15:52:27.585Z,1002.06
2022-08-21T15:53:22.550Z,1002.09
2022-08-21T15:54:22.554Z,1002.09
2022-08-21T15:55:22.528Z,1002.07
2022-08-21T15:56:22.529Z,1002.00
2022-08-21T15:57:22.506Z,1002.03
2022-08-21T15:58:22.497Z,1002.05
2022-08-21T15:59:22.495Z,1002.01
2022-08-21T16:00:22.477Z,1002.04
2022-08-21T16:01:22.535Z,1002.01
2022-08-21T16:02:22.457Z,1002.01
2022-08-21T16:03:27.468Z,1002.00
2022-08-21T16:04:22.447Z,1001.99
2022-08-21T16:05:22.421Z,1002.05